Time;durP1;ratioP1;P1;durP2;ratioP2;P2;SDS_P1;SDS_P2;PMS_P1;PMS_P2;Temp;Humidity;BMP_temperature;BMP_pressure;BME280_temperature;BME280_humidity;BME280_pressure;Samples;Min_cycle;Max_cycle;Signal;HPM_P1;HPM_P2
2021/12/20 08:29:33;;;;;;;28.03;5.63;;;;;;;5.34;86.95;102729.09;5286284;27;20364;-74
2021/12/20 08:32:04;;;;;;;27.80;5.47;;;;;;;5.38;87.45;102719.50;5265422;28;20033;-75
2021/12/20 08:34:35;;;;;;;28.97;7.33;;;;;;;5.40;88.69;102722.97;5265645;28;20071;-75
2021/12/20 08:37:07;;;;;;;20.83;4.67;;;;;;;5.41;89.27;102729.91;5266487;28;20478;-75
2021/12/20 08:39:38;;;;;;;22.17;4.57;;;;;;;5.45;87.66;102723.78;5267011;28;20041;-75
2021/12/20 08:42:10;;;;;;;19.50;4.03;;;;;;;5.41;88.32;102722.09;5264514;28;20028;-75
2021/12/20 08:44:41;;;;;;;25.83;5.20;;;;;;;5.48;88.23;102722.91;5264389;28;20021;-75
2021/12/20 08:47:12;;;;;;;22.63;5.33;;;;;;;5.64;87.45;102736.63;5265954;28;20111;-75
2021/12/20 08:49:44;;;;;;;26.10;4.80;;;;;;;5.65;86.64;102734.03;5265706;28;20025;-74
2021/12/20 08:52:16;;;;;;;22.30;5.27;;;;;;;5.47;85.47;102729.84;5263726;28;20052;-75
2021/12/20 08:54:47;;;;;;;19.87;4.70;;;;;;;5.69;86.38;102724.44;5263671;28;20029;-75
2021/12/20 08:57:18;;;;;;;16.77;4.40;;;;;;;5.79;85.16;102731.31;5267226;28;20094;-74
2021/12/20 08:59:50;;;;;;;20.80;4.83;;;;;;;5.72;85.57;102729.66;5265066;28;20028;-79
2021/12/20 09:02:21;;;;;;;17.67;5.03;;;;;;;5.65;84.39;102722.78;5266094;28;20028;-76
2021/12/20 09:04:52;;;;;;;16.33;3.83;;;;;;;5.68;81.93;102733.13;5271136;28;20040;-76
2021/12/20 09:07:24;;;;;;;17.50;3.50;;;;;;;5.71;81.97;102732.25;5266487;28;20017;-80
2021/12/20 09:09:55;;;;;;;11.47;3.40;;;;;;;5.72;79.08;102723.56;5266868;28;20050;-76
2021/12/20 09:12:26;;;;;;;17.37;3.73;;;;;;;5.74;78.96;102733.06;5264423;28;20515;-77
2021/12/20 09:14:58;;;;;;;15.17;4.03;;;;;;;5.66;80.09;102725.34;5274396;28;20074;-76
2021/12/20 09:17:29;;;;;;;18.63;4.10;;;;;;;5.73;79.39;102728.75;5265854;28;20483;-75
2021/12/20 09:20:00;;;;;;;13.80;3.40;;;;;;;5.73;79.20;102738.28;5269348;28;20036;-77
2021/12/20 09:22:39;;;;;;;21.00;5.17;;;;;;;5.72;81.03;102744.38;5269050;28;20060;-75
2021/12/20 09:25:10;;;;;;;16.20;3.47;;;;;;;5.86;81.05;102737.31;5267628;28;20036;-76
2021/12/20 09:27:41;;;;;;;23.97;4.63;;;;;;;5.96;82.31;102734.63;5275103;28;20044;-76
2021/12/20 09:30:14;;;;;;;20.73;5.43;;;;;;;5.85;82.51;102740.78;5264285;28;20028;-77
2021/12/20 09:32:46;;;;;;;17.77;4.43;;;;;;;6.02;81.08;102753.63;5271527;28;20047;-77
2021/12/20 09:35:18;;;;;;;21.23;4.67;;;;;;;5.95;80.24;102756.31;5267579;28;20029;-77
2021/12/20 09:37:50;;;;;;;17.40;4.33;;;;;;;5.90;80.37;102756.38;5266000;28;20048;-77
2021/12/20 09:40:32;;;;;;;19.17;3.77;;;;;;;5.93;79.43;102749.38;5257586;28;20041;-79
2021/12/20 09:43:10;;;;;;;20.00;4.67;;;;;;;5.94;80.51;102758.03;5253042;28;20057;-76
2021/12/20 09:45:44;;;;;;;15.90;4.00;;;;;;;6.11;80.80;102746.66;5250568;28;20025;-75
2021/12/20 09:48:16;;;;;;;18.00;3.83;;;;;;;6.02;80.63;102756.22;5261557;28;20059;-76
2021/12/20 09:50:47;;;;;;;20.30;4.33;;;;;;;6.14;81.38;102755.25;5292723;28;20024;-76
2021/12/20 09:53:18;;;;;;;16.20;4.13;;;;;;;6.12;81.72;102758.78;5298538;28;20020;-76
2021/12/20 09:55:51;;;;;;;17.27;3.90;;;;;;;6.22;81.33;102760.41;5253421;28;20017;-74
2021/12/20 09:58:25;;;;;;;23.57;4.60;;;;;;;6.06;79.40;102741.47;5252826;28;20130;-74
2021/12/20 10:00:56;;;;;;;24.17;4.47;;;;;;;6.25;79.42;102755.16;5250094;28;20545;-74
2021/12/20 10:03:28;;;;;;;22.43;4.47;;;;;;;6.27;80.76;102758.63;5267163;28;20017;-74
2021/12/20 10:06:00;;;;;;;17.43;3.67;;;;;;;6.37;80.09;102761.97;5267839;28;20036;-74
2021/12/20 10:08:33;;;;;;;26.27;4.37;;;;;;;6.28;80.62;102760.31;5264915;28;20106;-74
2021/12/20 10:11:16;;;;;;;16.90;3.70;;;;;;;6.35;80.07;102760.28;5250230;28;20031;-75
2021/12/20 10:13:48;;;;;;;21.87;4.63;;;;;;;6.40;80.50;102750.69;5283111;28;20335;-74
2021/12/20 10:16:22;;;;;;;24.63;5.10;;;;;;;6.37;80.02;102761.13;5254257;28;20267;-75
2021/12/20 10:18:53;;;;;;;19.13;4.47;;;;;;;6.43;80.73;102763.66;5258813;28;20025;-75
2021/12/20 10:21:45;;;;;;;22.77;4.60;;;;;;;6.49;80.56;102766.16;5253811;28;20024;-76
2021/12/20 10:24:32;;;;;;;16.90;5.00;;;;;;;6.45;79.92;102771.44;5238608;28;20108;-77
2021/12/20 10:27:04;;;;;;;19.80;4.73;;;;;;;6.43;80.25;102750.63;5252638;28;20387;-76
2021/12/20 10:29:36;;;;;;;20.17;4.63;;;;;;;6.52;78.90;102766.16;5254324;28;20032;-76
2021/12/20 10:32:09;;;;;;;21.50;5.77;;;;;;;6.45;79.85;102750.63;5250384;28;20021;-77
2021/12/20 10:34:40;;;;;;;19.67;4.37;;;;;;;6.50;80.76;102749.69;5260377;28;20055;-77
2021/12/20 10:37:11;;;;;;;18.37;4.40;;;;;;;6.54;79.45;102761.78;5264976;28;20047;-73
2021/12/20 10:39:45;;;;;;;14.10;3.70;;;;;;;6.51;80.74;102751.41;5252297;28;20391;-73
2021/12/20 10:42:20;;;;;;;18.55;4.35;;;;;;;6.52;81.19;102752.28;5252996;28;20036;-74
2021/12/20 10:45:13;;;;;;;20.17;4.93;;;;;;;6.69;80.86;102765.09;5259315;28;20204;-73
2021/12/20 10:47:45;;;;;;;23.73;4.53;;;;;;;6.56;78.68;102769.59;5260584;28;20029;-75
2021/12/20 10:50:32;;;;;;;23.13;5.17;;;;;;;6.58;79.64;102764.38;5253583;28;20040;-74
2021/12/20 10:53:35;;;;;;;18.23;3.50;;;;;;;6.59;79.69;102753.94;5258781;28;20100;-72
2021/12/20 10:56:08;;;;;;;24.10;5.60;;;;;;;6.62;79.68;102753.00;5243835;28;20207;-72
2021/12/20 10:58:41;;;;;;;23.77;5.97;;;;;;;6.51;80.38;102746.19;5261158;28;20037;-72
2021/12/20 11:04:20;;;;;;;18.67;4.80;;;;;;;6.64;79.03;102751.25;5262482;28;20468;-75
2021/12/20 11:09:46;;;;;;;16.50;5.20;;;;;;;6.71;79.76;102747.72;5264609;28;20044;-79
2021/12/20 11:12:26;;;;;;;19.73;4.47;;;;;;;6.86;80.44;102753.59;5248141;28;20480;-75
2021/12/20 11:15:01;;;;;;;15.90;4.30;;;;;;;6.84;79.49;102747.56;5251643;28;20029;-80
2021/12/20 11:17:33;;;;;;;20.53;5.50;;;;;;;6.75;78.84;102757.22;5249489;28;20029;-80
2021/12/20 11:20:05;;;;;;;21.33;5.20;;;;;;;6.71;78.62;102755.50;5247936;28;20400;-80
2021/12/20 11:22:36;;;;;;;22.77;4.93;;;;;;;6.77;79.62;102746.78;5248570;28;20040;-78
2021/12/20 11:25:11;;;;;;;21.33;5.13;;;;;;;6.87;77.89;102745.78;5251235;28;20075;-78
2021/12/20 11:27:50;;;;;;;22.83;5.93;;;;;;;6.90;78.46;102739.63;5251170;28;20082;-82
2021/12/20 11:30:28;;;;;;;22.67;4.67;;;;;;;6.92;78.91;102740.50;5254815;28;20037;-77
2021/12/20 11:33:00;;;;;;;20.73;4.50;;;;;;;6.88;78.41;102750.09;5254977;28;20016;-78
2021/12/20 11:35:32;;;;;;;20.73;6.03;;;;;;;6.82;79.25;102744.97;5254529;28;20024;-76
2021/12/20 11:38:05;;;;;;;19.80;4.27;;;;;;;6.75;78.59;102749.41;5250840;28;20021;-74
2021/12/20 11:40:36;;;;;;;22.07;5.60;;;;;;;6.80;78.79;102745.84;5247760;28;20723;-78
2021/12/20 11:43:08;;;;;;;13.87;3.60;;;;;;;6.71;77.11;102739.91;5250377;28;20036;-78
2021/12/20 11:45:39;;;;;;;17.90;4.67;;;;;;;6.73;77.68;102739.88;5247944;28;20029;-77
2021/12/20 11:48:13;;;;;;;20.27;4.93;;;;;;;6.93;78.61;102741.34;5242511;28;20528;-79
2021/12/20 11:50:44;;;;;;;21.30;4.93;;;;;;;6.98;77.76;102752.56;5235281;28;20032;-76
2021/12/20 11:53:17;;;;;;;22.60;4.77;;;;;;;6.94;77.38;102746.53;5238070;28;20747;-79
2021/12/20 11:55:51;;;;;;;25.00;5.37;;;;;;;6.93;77.29;102746.56;5237840;28;20029;-78
2021/12/20 11:58:32;;;;;;;20.63;5.75;;;;;;;6.76;77.45;102745.91;5238320;28;20106;-75
2021/12/20 12:01:15;;;;;;;19.47;5.13;;;;;;;6.88;79.18;102742.28;5234705;28;20653;-74
2021/12/20 12:03:58;;;;;;;25.30;5.50;;;;;;;6.78;79.00;102736.34;5238231;28;20054;-75
2021/12/20 12:06:31;;;;;;;18.67;4.57;;;;;;;6.67;78.55;102735.59;5236011;28;20384;-78
2021/12/20 12:09:03;;;;;;;14.63;5.30;;;;;;;6.77;78.37;102739.81;5243580;28;20025;-77
2021/12/20 12:11:35;;;;;;;18.80;4.33;;;;;;;6.77;77.41;102736.34;5245523;28;20025;-78
2021/12/20 12:14:18;;;;;;;23.07;5.17;;;;;;;6.65;78.94;102726.94;5249465;28;20023;-78
2021/12/20 12:17:02;;;;;;;21.33;4.63;;;;;;;6.77;79.75;102733.75;5246795;28;20025;-76
2021/12/20 12:19:45;;;;;;;25.77;5.93;;;;;;;6.78;78.99;102735.47;5248364;28;20051;-85
2021/12/20 12:22:25;;;;;;;19.47;5.57;;;;;;;6.71;79.13;102732.09;5244077;28;20075;-80
2021/12/20 12:24:57;;;;;;;22.73;4.77;;;;;;;6.70;78.55;102724.28;5248116;28;20607;-79
2021/12/20 12:27:33;;;;;;;26.97;4.63;;;;;;;6.68;78.59;102737.34;5248508;28;20055;-79
2021/12/20 12:30:11;;;;;;;22.67;5.23;;;;;;;6.81;77.08;102734.56;5240976;28;20032;-76
2021/12/20 12:32:48;;;;;;;23.57;4.47;;;;;;;6.91;77.87;102720.53;5248185;28;20104;-78
2021/12/20 12:35:37;;;;;;;25.80;5.00;;;;;;;6.92;76.52;102721.38;5248388;28;20020;-78
2021/12/20 12:38:33;;;;;;;21.43;4.00;;;;;;;6.90;78.58;102721.41;5247829;28;20032;-77
2021/12/20 12:41:04;;;;;;;31.23;7.90;;;;;;;7.02;77.35;102716.03;5244277;28;20020;-79
2021/12/20 12:43:52;;;;;;;23.10;4.80;;;;;;;7.04;78.58;102716.00;5247068;28;20023;-80
2021/12/20 12:46:35;;;;;;;25.50;5.40;;;;;;;7.18;77.34;102726.22;5246948;28;20112;-81
2021/12/20 12:49:21;;;;;;;19.13;5.00;;;;;;;7.25;76.40;102720.03;5247920;28;20033;-80
2021/12/20 12:52:08;;;;;;;21.10;4.90;;;;;;;7.23;75.48;102710.50;5245692;28;20021;-80
2021/12/20 12:54:52;;;;;;;19.13;4.77;;;;;;;7.25;75.59;102714.81;5246522;28;20316;-74
2021/12/20 12:57:23;;;;;;;16.13;4.23;;;;;;;7.19;72.43;102712.28;5246145;28;20025;-81
2021/12/20 12:59:55;;;;;;;23.33;4.00;;;;;;;7.19;73.41;102709.69;5250179;28;20020;-80
2021/12/20 13:02:29;;;;;;;17.77;4.37;;;;;;;7.19;74.45;102709.69;5244819;28;20021;-78
2021/12/20 13:05:05;;;;;;;13.43;4.35;;;;;;;7.47;74.74;102711.84;5247394;28;20017;-77
2021/12/20 13:07:54;;;;;;;17.80;4.40;;;;;;;7.38;73.87;102704.22;5247802;28;20044;-77
2021/12/20 13:10:32;;;;;;;25.53;5.80;;;;;;;7.33;73.26;102714.69;5245487;28;20067;-78
2021/12/20 13:13:16;;;;;;;28.73;5.33;;;;;;;7.24;72.72;102705.25;5249271;28;20028;-77
2021/12/20 13:15:57;;;;;;;24.17;5.22;;;;;;;7.36;73.58;102704.22;5248581;28;20503;-79
2021/12/20 13:18:32;;;;;;;20.90;4.57;;;;;;;7.22;76.02;102701.84;5253173;28;20140;-81
2021/12/20 13:21:07;;;;;;;29.10;6.03;;;;;;;7.30;74.82;102706.06;5251673;28;20020;-80
2021/12/20 13:23:46;;;;;;;21.90;6.10;;;;;;;7.36;75.46;102709.44;5253777;28;20921;-78
2021/12/20 13:26:21;;;;;;;20.70;4.87;;;;;;;7.23;75.23;102707.91;5286231;28;20025;-80
2021/12/20 13:29:00;;;;;;;21.23;4.70;;;;;;;7.05;75.56;102703.84;5262835;28;20048;-81
2021/12/20 13:31:32;;;;;;;25.17;6.17;;;;;;;7.29;75.37;102701.75;5243473;28;20114;-77
2021/12/20 13:34:11;;;;;;;17.27;4.60;;;;;;;7.12;75.96;102700.28;5251061;28;20039;-80
2021/12/20 13:36:50;;;;;;;28.10;4.93;;;;;;;7.04;76.85;102704.72;5237486;28;20496;-80
2021/12/20 13:39:22;;;;;;;26.43;6.07;;;;;;;6.93;76.57;102690.09;5249825;28;20406;-78
2021/12/20 13:42:04;;;;;;;22.70;5.90;;;;;;;7.13;76.26;102707.19;5246484;28;20035;-75
2021/12/20 13:44:36;;;;;;;25.83;5.50;;;;;;;6.88;74.21;102691.91;5238241;28;20036;-79
2021/12/20 13:47:16;;;;;;;24.53;5.50;;;;;;;6.86;74.44;102698.91;5247066;28;20488;-79
2021/12/20 13:49:47;;;;;;;22.23;4.67;;;;;;;6.65;74.94;102690.47;5252821;28;20032;-79
2021/12/20 13:52:20;;;;;;;22.73;6.00;;;;;;;6.70;74.50;102701.72;5250340;28;20017;-74
2021/12/20 13:54:52;;;;;;;25.67;5.93;;;;;;;6.60;76.12;102703.56;5250302;28;20032;-79
2021/12/20 13:57:24;;;;;;;28.30;7.73;;;;;;;6.54;76.19;102709.72;5257031;28;20051;-74
2021/12/20 13:59:58;;;;;;;24.07;5.57;;;;;;;6.50;75.85;102700.22;5250072;28;20471;-74
2021/12/20 14:02:41;;;;;;;21.08;5.85;;;;;;;6.58;76.43;102707.09;5249748;28;20025;-72
2021/12/20 14:05:24;;;;;;;30.40;6.87;;;;;;;6.43;76.38;102687.31;5252092;28;20510;-73
2021/12/20 14:08:00;;;;;;;32.50;6.00;;;;;;;6.51;76.68;102704.53;5252596;28;20057;-73
2021/12/20 14:10:36;;;;;;;30.23;6.23;;;;;;;6.28;76.87;102695.28;5246454;28;20056;-74
2021/12/20 14:13:14;;;;;;;22.73;5.87;;;;;;;6.29;77.19;102694.41;5253653;28;20025;-73
2021/12/20 14:15:56;;;;;;;23.53;5.70;;;;;;;6.33;77.54;102694.38;5254365;28;20076;-74
2021/12/20 14:18:37;;;;;;;28.43;5.60;;;;;;;6.34;78.04;102696.94;5251014;28;20028;-74
2021/12/20 14:21:10;;;;;;;22.30;5.67;;;;;;;6.36;77.58;102689.13;5255574;28;20029;-75
2021/12/20 14:23:49;;;;;;;22.63;7.43;;;;;;;6.23;78.77;102697.06;5288643;28;20064;-75
2021/12/20 14:26:25;;;;;;;28.53;6.03;;;;;;;6.08;78.90;102685.09;5254151;28;20037;-76
2021/12/20 14:29:08;;;;;;;21.30;5.07;;;;;;;6.13;78.90;102687.63;5258440;28;20061;-80
2021/12/20 14:31:50;;;;;;;23.10;6.17;;;;;;;6.17;78.60;102691.94;5246105;28;20032;-79
2021/12/20 14:34:38;;;;;;;31.73;7.67;;;;;;;6.07;79.48;102695.53;5250678;28;20025;-80
2021/12/20 14:37:13;;;;;;;37.13;6.80;;;;;;;6.16;80.29;102691.06;5246432;28;20033;-78
2021/12/20 14:39:45;;;;;;;28.88;6.18;;;;;;;5.97;80.63;102702.53;5249105;28;20025;-76
2021/12/20 14:42:18;;;;;;;28.60;6.27;;;;;;;5.96;79.64;102699.06;5247833;28;20032;-75
2021/12/20 14:44:57;;;;;;;25.63;5.00;;;;;;;5.86;80.26;102689.63;5247794;28;20025;-76
2021/12/20 14:47:40;;;;;;;25.07;5.67;;;;;;;6.04;79.95;102688.56;5250539;28;20453;-77
2021/12/20 14:50:25;;;;;;;24.17;6.67;;;;;;;5.91;79.96;102704.34;5246347;28;20040;-79
2021/12/20 14:52:56;;;;;;;29.23;7.38;;;;;;;5.66;80.91;102682.88;5283569;28;20049;-79
2021/12/20 14:55:33;;;;;;;27.73;5.77;;;;;;;5.80;80.14;102699.22;5251358;28;20114;-75
2021/12/20 14:58:04;;;;;;;19.90;6.10;;;;;;;5.59;80.28;102691.59;5261999;28;20029;-78
2021/12/20 15:00:37;;;;;;;29.20;6.53;;;;;;;5.57;80.87;102689.91;5249756;28;20438;-79
2021/12/20 15:03:08;;;;;;;26.03;5.47;;;;;;;5.74;80.65;102693.22;5250905;28;20104;-76
2021/12/20 15:05:39;;;;;;;23.17;6.47;;;;;;;5.73;80.97;102700.16;5249920;28;20123;-76
2021/12/20 15:08:13;;;;;;;30.40;6.57;;;;;;;5.61;82.05;102693.34;5251303;28;20118;-73
2021/12/20 15:10:44;;;;;;;32.50;5.53;;;;;;;5.64;81.80;102690.69;5247402;28;20021;-76
2021/12/20 15:13:15;;;;;;;19.57;5.43;;;;;;;5.71;81.47;102691.50;5250290;28;20033;-75
2021/12/20 15:15:46;;;;;;;19.83;4.90;;;;;;;5.69;80.84;102690.66;5248878;28;20029;-76
2021/12/20 15:18:18;;;;;;;22.47;5.50;;;;;;;5.59;81.72;102691.59;5252323;28;20013;-76
2021/12/20 15:20:49;;;;;;;22.13;4.87;;;;;;;5.74;80.93;102707.06;5251930;28;20104;-74
2021/12/20 15:23:20;;;;;;;21.57;5.13;;;;;;;5.64;80.81;102688.09;5248602;28;20029;-78
2021/12/20 15:25:52;;;;;;;20.57;5.57;;;;;;;5.47;80.88;102698.66;5256660;28;20025;-77
2021/12/20 15:28:23;;;;;;;29.53;6.10;;;;;;;5.54;81.77;102694.25;5241290;28;20049;-77
2021/12/20 15:30:54;;;;;;;21.17;4.40;;;;;;;5.46;81.45;102696.94;5244898;28;20025;-79
2021/12/20 15:33:25;;;;;;;22.77;5.17;;;;;;;5.14;82.22;102701.50;5260042;28;20098;-78
2021/12/20 15:35:57;;;;;;;20.27;5.17;;;;;;;5.11;82.41;102692.84;5250739;28;20023;-78
2021/12/20 15:38:28;;;;;;;26.80;6.33;;;;;;;5.04;82.63;102695.50;5249515;28;20104;-78
2021/12/20 15:40:59;;;;;;;34.43;8.33;;;;;;;4.92;82.80;102688.63;5247904;28;20036;-79
2021/12/20 15:43:31;;;;;;;25.20;7.60;;;;;;;4.94;82.75;102696.44;5250058;28;20060;-79
2021/12/20 15:46:04;;;;;;;27.83;8.70;;;;;;;4.90;82.91;102686.94;5248707;28;20029;-77
2021/12/20 15:48:35;;;;;;;36.83;9.27;;;;;;;4.69;83.56;102688.78;5249487;28;20028;-77
2021/12/20 15:51:06;;;;;;;33.77;10.80;;;;;;;4.74;82.73;102684.44;5247134;28;20506;-76
2021/12/20 15:53:38;;;;;;;26.33;7.70;;;;;;;4.86;83.22;102693.00;5248771;28;20488;-78
2021/12/20 15:56:09;;;;;;;29.07;7.37;;;;;;;4.71;83.62;102676.66;5249263;28;20155;-76
2021/12/20 15:58:41;;;;;;;23.63;6.93;;;;;;;4.87;83.02;102695.59;5253689;28;20033;-77
2021/12/20 16:01:12;;;;;;;22.80;7.20;;;;;;;4.98;81.87;102690.34;5243077;28;20029;-84
2021/12/20 16:03:43;;;;;;;21.43;7.17;;;;;;;4.74;82.77;102688.75;5248836;28;20104;-75
2021/12/20 16:06:15;;;;;;;19.83;5.90;;;;;;;4.96;83.09;102692.06;5281558;28;20044;-76
2021/12/20 16:08:46;;;;;;;23.67;6.10;;;;;;;4.70;83.06;102695.69;5249663;28;20060;-76
2021/12/20 16:11:17;;;;;;;24.20;6.03;;;;;;;4.59;83.48;102694.00;5247998;28;20044;-75
2021/12/20 16:13:49;;;;;;;27.30;6.53;;;;;;;4.60;82.28;102693.16;5263962;28;20117;-76
2021/12/20 16:16:20;;;;;;;24.67;6.73;;;;;;;4.54;83.46;102689.72;5248449;28;20047;-75
2021/12/20 16:18:51;;;;;;;20.47;6.57;;;;;;;4.29;83.94;102680.31;5253318;28;20052;-76
2021/12/20 16:21:23;;;;;;;25.67;5.50;;;;;;;4.31;84.05;102688.09;5255081;28;20167;-76
2021/12/20 16:23:54;;;;;;;19.57;6.40;;;;;;;4.43;84.29;102687.16;5257030;28;20041;-76
2021/12/20 16:26:25;;;;;;;20.07;5.40;;;;;;;4.47;84.27;102688.88;5247858;28;20051;-76
2021/12/20 16:28:57;;;;;;;25.40;6.37;;;;;;;4.41;83.72;102688.91;5248531;28;20719;-75
2021/12/20 16:31:28;;;;;;;23.90;6.67;;;;;;;4.15;83.95;102677.75;5244933;28;20037;-75
2021/12/20 16:33:59;;;;;;;22.00;6.40;;;;;;;4.32;84.74;102685.47;5250253;28;20079;-75
2021/12/20 16:36:31;;;;;;;42.70;5.73;;;;;;;4.40;83.91;102694.97;5249119;28;20111;-75
2021/12/20 16:39:04;;;;;;;24.37;6.50;;;;;;;4.43;83.97;102689.75;5250100;28;20035;-74
2021/12/20 16:41:35;;;;;;;31.53;6.73;;;;;;;4.35;84.02;102689.78;5246929;28;20040;-74
2021/12/20 16:44:15;;;;;;;21.30;6.13;;;;;;;4.14;84.39;102695.91;5249724;28;20028;-75
2021/12/20 16:46:56;;;;;;;33.60;7.70;;;;;;;3.92;85.18;102678.69;5248358;28;20090;-76
2021/12/20 16:49:27;;;;;;;18.30;4.63;;;;;;;4.27;84.13;102697.59;5250374;28;20472;-75
2021/12/20 16:51:58;;;;;;;23.07;6.63;;;;;;;4.17;84.44;102688.13;5249635;28;20086;-76
2021/12/20 16:54:30;;;;;;;22.73;6.40;;;;;;;4.04;84.94;102698.53;5252516;28;20499;-75
2021/12/20 16:57:02;;;;;;;27.47;6.77;;;;;;;4.07;84.59;102695.03;5252092;28;20032;-75
2021/12/20 16:59:34;;;;;;;32.97;9.23;;;;;;;3.97;84.65;102692.50;5251750;28;20047;-75
2021/12/20 17:02:06;;;;;;;26.37;8.33;;;;;;;3.99;85.18;102700.25;5251125;28;20029;-79
2021/12/20 17:04:41;;;;;;;24.97;8.33;;;;;;;4.00;85.33;102704.56;5253646;28;20135;-76
2021/12/20 17:07:13;;;;;;;34.40;8.85;;;;;;;3.79;85.86;102702.91;5247308;28;20037;-76
2021/12/20 17:09:45;;;;;;;27.10;8.83;;;;;;;3.86;86.56;102705.47;5258108;28;20040;-76
2021/12/20 17:12:17;;;;;;;27.87;8.37;;;;;;;3.98;85.59;102703.69;5256138;28;20029;-73
2021/12/20 17:14:48;;;;;;;28.63;8.20;;;;;;;3.91;84.73;102696.81;5255669;28;20024;-74
2021/12/20 17:17:19;;;;;;;20.40;6.77;;;;;;;3.67;85.39;102691.66;5259997;28;20025;-73
2021/12/20 17:19:51;;;;;;;29.37;6.83;;;;;;;3.77;85.85;102702.03;5257869;28;20526;-76
2021/12/20 17:22:22;;;;;;;29.83;7.07;;;;;;;3.83;86.30;102696.81;5251248;28;20036;-77
2021/12/20 17:24:53;;;;;;;24.83;8.37;;;;;;;3.63;86.30;102688.19;5253997;28;20029;-76
2021/12/20 17:27:24;;;;;;;23.83;7.53;;;;;;;3.73;86.49;102701.16;5251503;28;20048;-77
2021/12/20 17:29:56;;;;;;;28.73;7.37;;;;;;;3.74;86.41;102708.06;5250313;28;20036;-76
2021/12/20 17:32:27;;;;;;;26.37;6.73;;;;;;;3.86;86.34;102695.09;5249556;28;20028;-75
2021/12/20 17:34:58;;;;;;;23.83;6.07;;;;;;;3.69;86.31;102700.31;5251848;28;20025;-75
2021/12/20 17:37:29;;;;;;;30.10;9.00;;;;;;;3.49;85.87;102705.50;5251145;28;20040;-75
2021/12/20 17:40:01;;;;;;;31.00;8.23;;;;;;;3.60;86.06;102700.28;5250589;28;20025;-75
2021/12/20 17:42:32;;;;;;;26.47;9.70;;;;;;;3.52;86.49;102695.13;5251271;28;20039;-75
2021/12/20 17:45:04;;;;;;;30.50;9.73;;;;;;;3.42;87.02;102706.34;5250594;28;20051;-75
2021/12/20 17:47:36;;;;;;;32.67;9.47;;;;;;;3.65;86.36;102703.75;5251221;28;20032;-74
2021/12/20 17:50:09;;;;;;;24.67;8.83;;;;;;;3.75;85.70;102705.47;5249588;28;20017;-74
2021/12/20 17:52:43;;;;;;;27.20;8.80;;;;;;;3.44;86.20;102710.66;5251564;28;20027;-73
2021/12/20 17:55:16;;;;;;;22.93;7.60;;;;;;;3.53;86.13;102702.03;5252589;28;20033;-73
2021/12/20 17:57:48;;;;;;;24.00;7.03;;;;;;;3.68;84.81;102710.66;5250273;28;20040;-75
2021/12/20 18:00:23;;;;;;;20.30;7.37;;;;;;;3.56;85.46;102707.19;5246132;28;20043;-72
2021/12/20 18:02:54;;;;;;;29.90;8.20;;;;;;;3.69;85.44;102709.78;5250982;28;20031;-72
2021/12/20 18:05:29;;;;;;;31.23;8.80;;;;;;;3.43;85.91;102711.53;5251761;28;20100;-72
2021/12/20 18:08:00;;;;;;;;;;;;;;;3.88;85.03;102726.19;5252291;28;20502;-72
2021/12/20 18:10:32;;;;;;;26.80;7.00;;;;;;;3.39;84.67;102702.03;5249450;28;19912;-74
2021/12/20 18:13:03;;;;;;;34.23;8.50;;;;;;;3.43;85.11;102718.44;5252276;28;20033;-76
2021/12/20 18:15:35;;;;;;;35.90;11.40;;;;;;;3.37;85.26;102725.34;5250865;28;20369;-76
2021/12/20 18:18:06;;;;;;;37.63;12.07;;;;;;;3.25;86.14;102728.78;5252005;28;20074;-75
2021/12/20 18:20:37;;;;;;;27.43;8.87;;;;;;;3.31;86.14;102725.34;5248731;28;20029;-74
2021/12/20 18:23:10;;;;;;;31.50;10.43;;;;;;;3.20;85.92;102714.09;5251529;28;20024;-75
2021/12/20 18:25:41;;;;;;;25.73;9.37;;;;;;;3.40;85.33;102719.31;5251302;28;20025;-72
2021/12/20 18:28:12;;;;;;;27.93;9.93;;;;;;;2.93;85.79;102724.41;5250359;28;20039;-73
2021/12/20 18:30:44;;;;;;;31.37;9.70;;;;;;;3.10;86.17;102726.16;5246926;28;20472;-72
2021/12/20 18:33:15;;;;;;;29.80;9.53;;;;;;;3.20;85.78;102732.22;5251695;28;20044;-74
2021/12/20 18:35:46;;;;;;;28.23;9.23;;;;;;;3.13;85.82;102727.03;5253007;28;20507;-75
2021/12/20 18:38:27;;;;;;;23.27;10.87;;;;;;;3.07;86.65;102726.16;5250167;28;20815;-74
2021/12/20 18:40:58;;;;;;;19.33;7.60;;;;;;;3.13;85.19;102718.41;5248603;28;20162;-74
2021/12/20 18:43:31;;;;;;;28.77;9.60;;;;;;;3.16;85.42;102720.97;5251464;28;20544;-73
2021/12/20 18:46:04;;;;;;;25.90;9.93;;;;;;;3.16;85.32;102709.78;5249953;28;20044;-74
2021/12/20 18:48:35;;;;;;;26.63;8.80;;;;;;;3.29;84.42;102727.06;5250810;28;20080;-73
2021/12/20 18:51:07;;;;;;;25.33;9.57;;;;;;;3.27;84.34;102723.59;5248768;28;20793;-73
2021/12/20 18:53:38;;;;;;;31.33;9.10;;;;;;;3.00;85.52;102726.13;5249789;28;20695;-73
2021/12/20 18:56:09;;;;;;;27.07;10.10;;;;;;;2.87;85.80;102701.94;5251379;28;20033;-73
2021/12/20 18:58:41;;;;;;;33.47;10.37;;;;;;;2.97;85.21;102699.38;5248184;28;20579;-73
2021/12/20 19:01:12;;;;;;;30.23;10.50;;;;;;;3.02;84.61;102713.19;5246771;28;20396;-75
2021/12/20 19:03:45;;;;;;;23.10;9.43;;;;;;;2.97;84.62;102723.53;5249662;28;20555;-74
2021/12/20 19:06:18;;;;;;;28.10;10.13;;;;;;;2.62;85.84;102714.78;5251074;28;20452;-74
2021/12/20 19:08:50;;;;;;;23.87;8.37;;;;;;;2.90;85.63;102716.59;5248482;28;20068;-74
2021/12/20 19:11:34;;;;;;;28.87;9.47;;;;;;;2.79;85.06;102714.00;5247839;28;20049;-73
2021/12/20 19:14:09;;;;;;;25.27;9.10;;;;;;;2.50;86.53;102719.91;5278881;28;20013;-74
2021/12/20 19:16:44;;;;;;;25.98;9.60;;;;;;;2.72;86.63;102730.38;5250869;28;20289;-74
2021/12/20 19:19:18;;;;;;;26.35;9.65;;;;;;;2.69;86.17;102726.03;5250488;28;20434;-74
2021/12/20 19:21:49;;;;;;;23.55;8.75;;;;;;;2.54;85.46;102724.25;5247693;28;20430;-73
2021/12/20 19:24:20;;;;;;;29.37;8.20;;;;;;;2.69;85.96;102709.66;5250344;28;20017;-73
2021/12/20 19:26:53;;;;;;;27.27;9.77;;;;;;;2.46;86.79;102720.78;5251356;28;20035;-75
2021/12/20 19:29:25;;;;;;;29.80;10.70;;;;;;;2.40;87.26;102719.88;5248988;28;20060;-75
2021/12/20 19:31:56;;;;;;;30.97;13.60;;;;;;;2.26;87.20;102716.34;5247426;28;20055;-74
2021/12/20 19:34:28;;;;;;;25.00;12.83;;;;;;;2.46;86.49;102718.19;5251182;28;20028;-74
2021/12/20 19:37:02;;;;;;;30.10;13.60;;;;;;;2.39;86.53;102715.56;5250636;28;20036;-75
2021/12/20 19:39:41;;;;;;;32.67;16.45;;;;;;;2.30;86.74;102716.38;5249266;28;20024;-75
2021/12/20 19:42:17;;;;;;;34.43;14.30;;;;;;;2.20;86.88;102716.31;5250140;28;20021;-75
2021/12/20 19:44:49;;;;;;;29.73;14.33;;;;;;;2.04;87.07;102705.91;5248747;28;20155;-75
2021/12/20 19:47:20;;;;;;;28.00;13.20;;;;;;;2.29;86.45;102711.19;5250056;28;20036;-76
2021/12/20 19:49:51;;;;;;;23.77;12.67;;;;;;;2.13;86.52;102723.19;5250083;28;20061;-80
2021/12/20 19:52:24;;;;;;;40.73;13.43;;;;;;;2.29;85.81;102722.41;5249971;28;20024;-78
2021/12/20 19:54:57;;;;;;;26.60;11.93;;;;;;;2.42;85.92;102720.75;5249862;28;20109;-79
2021/12/20 19:57:28;;;;;;;30.77;10.43;;;;;;;2.28;85.50;102709.47;5250607;28;20037;-77
2021/12/20 20:00:00;;;;;;;31.13;10.97;;;;;;;2.36;85.16;102712.09;5248910;28;20028;-75
2021/12/20 20:02:31;;;;;;;29.30;10.70;;;;;;;2.23;85.42;102717.22;5249152;28;20025;-74
2021/12/20 20:05:03;;;;;;;27.20;11.30;;;;;;;2.33;85.31;102717.25;5249458;28;20056;-74
2021/12/20 20:07:34;;;;;;;26.57;9.30;;;;;;;1.89;86.77;102712.69;5247969;28;20031;-76
2021/12/20 20:10:07;;;;;;;27.03;10.83;;;;;;;2.00;86.06;102715.34;5250732;28;20414;-74
2021/12/20 20:12:38;;;;;;;24.77;10.30;;;;;;;2.07;85.70;102705.91;5248142;28;20032;-75
2021/12/20 20:15:10;;;;;;;20.90;8.03;;;;;;;1.98;85.58;102711.00;5249156;28;20029;-74
2021/12/20 20:17:41;;;;;;;23.93;8.50;;;;;;;2.07;85.58;102707.63;5249487;28;20029;-74
2021/12/20 20:20:13;;;;;;;19.07;8.80;;;;;;;2.08;85.34;102712.78;5250017;28;20108;-74
2021/12/20 20:22:44;;;;;;;26.00;8.97;;;;;;;2.00;85.50;102698.97;5248349;28;20033;-73
2021/12/20 20:25:15;;;;;;;22.90;9.07;;;;;;;1.93;85.11;102704.09;5249747;28;20411;-73
2021/12/20 20:27:47;;;;;;;27.33;9.57;;;;;;;1.80;85.97;102708.31;5249699;28;20471;-74
2021/12/20 20:30:21;;;;;;;19.50;9.33;;;;;;;1.72;86.18;102706.53;5248279;28;20080;-74